sensor_id;sensor_type;location;lat;lon;timestamp;P1;durP1;ratioP1;P2;durP2;ratioP2
21183;SDS011;18176;49.502;11.754;2023-08-07T00:03:23;0.83;;;0.50;;
21183;SDS011;18176;49.502;11.754;2023-08-07T00:07:24;0.30;;;0.30;;
21183;SDS011;18176;49.502;11.754;2023-08-07T00:11:24;1.50;;;0.30;;
21183;SDS011;18176;49.502;11.754;2023-08-07T00:15:27;0.20;;;0.20;;
21183;SDS011;18176;49.502;11.754;2023-08-07T00:19:30;0.30;;;0.30;;
21183;SDS011;18176;49.502;11.754;2023-08-07T00:23:30;0.40;;;0.40;;
21183;SDS011;18176;49.502;11.754;2023-08-07T00:27:30;0.37;;;0.37;;
21183;SDS011;18176;49.502;11.754;2023-08-07T00:31:34;1.13;;;0.30;;
21183;SDS011;18176;49.502;11.754;2023-08-07T00:35:35;0.20;;;0.20;;
21183;SDS011;18176;49.502;11.754;2023-08-07T00:39:35;1.47;;;0.20;;
21183;SDS011;18176;49.502;11.754;2023-08-07T00:43:35;0.63;;;0.40;;
21183;SDS011;18176;49.502;11.754;2023-08-07T00:47:38;0.20;;;0.20;;
21183;SDS011;18176;49.502;11.754;2023-08-07T00:51:39;0.20;;;0.20;;
21183;SDS011;18176;49.502;11.754;2023-08-07T00:55:39;0.10;;;0.10;;
21183;SDS011;18176;49.502;11.754;2023-08-07T00:59:41;0.50;;;0.20;;
21183;SDS011;18176;49.502;11.754;2023-08-07T01:03:46;0.63;;;0.20;;
21183;SDS011;18176;49.502;11.754;2023-08-07T01:07:46;0.50;;;0.37;;
21183;SDS011;18176;49.502;11.754;2023-08-07T01:11:53;0.20;;;0.20;;
21183;SDS011;18176;49.502;11.754;2023-08-07T01:16:07;0.20;;;0.20;;
21183;SDS011;18176;49.502;11.754;2023-08-07T01:20:19;0.83;;;0.20;;
21183;SDS011;18176;49.502;11.754;2023-08-07T01:24:23;0.83;;;0.20;;
21183;SDS011;18176;49.502;11.754;2023-08-07T01:28:26;0.13;;;0.13;;
21183;SDS011;18176;49.502;11.754;2023-08-07T01:32:33;0.20;;;0.10;;
21183;SDS011;18176;49.502;11.754;2023-08-07T01:36:42;0.70;;;0.10;;
21183;SDS011;18176;49.502;11.754;2023-08-07T01:40:48;0.10;;;0.10;;
21183;SDS011;18176;49.502;11.754;2023-08-07T01:44:50;0.20;;;0.20;;
21183;SDS011;18176;49.502;11.754;2023-08-07T01:48:51;0.30;;;0.20;;
21183;SDS011;18176;49.502;11.754;2023-08-07T01:52:51;0.10;;;0.10;;
21183;SDS011;18176;49.502;11.754;2023-08-07T01:56:55;1.17;;;0.10;;
21183;SDS011;18176;49.502;11.754;2023-08-07T02:00:55;0.33;;;0.23;;
21183;SDS011;18176;49.502;11.754;2023-08-07T02:04:56;1.33;;;0.10;;
21183;SDS011;18176;49.502;11.754;2023-08-07T02:08:56;0.17;;;0.10;;
21183;SDS011;18176;49.502;11.754;2023-08-07T02:12:59;2.10;;;0.20;;
21183;SDS011;18176;49.502;11.754;2023-08-07T02:17:02;0.70;;;0.20;;
21183;SDS011;18176;49.502;11.754;2023-08-07T02:21:04;1.70;;;0.13;;
21183;SDS011;18176;49.502;11.754;2023-08-07T02:25:05;0.30;;;0.30;;
21183;SDS011;18176;49.502;11.754;2023-08-07T02:29:10;0.73;;;0.17;;
21183;SDS011;18176;49.502;11.754;2023-08-07T02:33:10;0.43;;;0.20;;
21183;SDS011;18176;49.502;11.754;2023-08-07T02:37:10;0.53;;;0.30;;
21183;SDS011;18176;49.502;11.754;2023-08-07T02:41:12;0.13;;;0.13;;
21183;SDS011;18176;49.502;11.754;2023-08-07T02:45:16;0.50;;;0.37;;
21183;SDS011;18176;49.502;11.754;2023-08-07T02:49:16;0.20;;;0.20;;
21183;SDS011;18176;49.502;11.754;2023-08-07T02:53:16;0.70;;;0.20;;
21183;SDS011;18176;49.502;11.754;2023-08-07T02:57:17;0.33;;;0.10;;
21183;SDS011;18176;49.502;11.754;2023-08-07T03:01:20;0.10;;;0.10;;
21183;SDS011;18176;49.502;11.754;2023-08-07T03:05:20;0.20;;;0.20;;
21183;SDS011;18176;49.502;11.754;2023-08-07T03:09:21;0.20;;;0.10;;
21183;SDS011;18176;49.502;11.754;2023-08-07T03:13:21;0.23;;;0.20;;
21183;SDS011;18176;49.502;11.754;2023-08-07T03:17:24;0.37;;;0.20;;
21183;SDS011;18176;49.502;11.754;2023-08-07T03:21:24;0.40;;;0.30;;
21183;SDS011;18176;49.502;11.754;2023-08-07T03:25:25;0.20;;;0.20;;
21183;SDS011;18176;49.502;11.754;2023-08-07T03:29:25;0.77;;;0.23;;
21183;SDS011;18176;49.502;11.754;2023-08-07T03:33:29;0.67;;;0.40;;
21183;SDS011;18176;49.502;11.754;2023-08-07T03:37:31;0.47;;;0.37;;
21183;SDS011;18176;49.502;11.754;2023-08-07T03:41:31;0.20;;;0.20;;
21183;SDS011;18176;49.502;11.754;2023-08-07T03:45:31;0.40;;;0.40;;
21183;SDS011;18176;49.502;11.754;2023-08-07T03:49:34;0.50;;;0.30;;
21183;SDS011;18176;49.502;11.754;2023-08-07T03:53:35;0.43;;;0.40;;
21183;SDS011;18176;49.502;11.754;2023-08-07T03:57:36;0.33;;;0.33;;
21183;SDS011;18176;49.502;11.754;2023-08-07T04:01:36;0.50;;;0.30;;
21183;SDS011;18176;49.502;11.754;2023-08-07T04:05:39;0.30;;;0.30;;
21183;SDS011;18176;49.502;11.754;2023-08-07T04:09:40;0.83;;;0.50;;
21183;SDS011;18176;49.502;11.754;2023-08-07T04:13:40;0.40;;;0.40;;
21183;SDS011;18176;49.502;11.754;2023-08-07T04:17:40;0.40;;;0.40;;
21183;SDS011;18176;49.502;11.754;2023-08-07T04:21:43;1.37;;;0.53;;
21183;SDS011;18176;49.502;11.754;2023-08-07T04:25:44;1.13;;;0.57;;
21183;SDS011;18176;49.502;11.754;2023-08-07T04:29:46;1.73;;;0.50;;
21183;SDS011;18176;49.502;11.754;2023-08-07T04:33:46;0.57;;;0.50;;
21183;SDS011;18176;49.502;11.754;2023-08-07T04:37:49;0.40;;;0.40;;
21183;SDS011;18176;49.502;11.754;2023-08-07T04:41:52;0.80;;;0.60;;
21183;SDS011;18176;49.502;11.754;2023-08-07T04:45:53;0.90;;;0.50;;
21183;SDS011;18176;49.502;11.754;2023-08-07T04:49:53;2.33;;;0.60;;
21183;SDS011;18176;49.502;11.754;2023-08-07T04:53:56;1.23;;;0.67;;
21183;SDS011;18176;49.502;11.754;2023-08-07T04:57:57;1.17;;;0.80;;
21183;SDS011;18176;49.502;11.754;2023-08-07T05:01:57;1.37;;;0.50;;
21183;SDS011;18176;49.502;11.754;2023-08-07T05:05:58;0.93;;;0.70;;
21183;SDS011;18176;49.502;11.754;2023-08-07T05:10:02;0.97;;;0.63;;
21183;SDS011;18176;49.502;11.754;2023-08-07T05:14:03;1.93;;;0.87;;
21183;SDS011;18176;49.502;11.754;2023-08-07T05:18:04;0.70;;;0.70;;
21183;SDS011;18176;49.502;11.754;2023-08-07T05:22:05;1.17;;;0.93;;
21183;SDS011;18176;49.502;11.754;2023-08-07T05:26:08;1.73;;;1.03;;
21183;SDS011;18176;49.502;11.754;2023-08-07T05:30:09;1.90;;;0.80;;
21183;SDS011;18176;49.502;11.754;2023-08-07T05:34:12;2.43;;;1.30;;
21183;SDS011;18176;49.502;11.754;2023-08-07T05:38:12;1.10;;;1.00;;
21183;SDS011;18176;49.502;11.754;2023-08-07T05:42:15;2.07;;;1.30;;
21183;SDS011;18176;49.502;11.754;2023-08-07T05:46:16;2.13;;;1.23;;
21183;SDS011;18176;49.502;11.754;2023-08-07T05:50:16;1.90;;;1.20;;
21183;SDS011;18176;49.502;11.754;2023-08-07T05:54:17;2.37;;;1.20;;
21183;SDS011;18176;49.502;11.754;2023-08-07T05:58:20;2.13;;;1.30;;
21183;SDS011;18176;49.502;11.754;2023-08-07T06:02:20;4.13;;;1.60;;
21183;SDS011;18176;49.502;11.754;2023-08-07T06:06:21;3.13;;;1.53;;
21183;SDS011;18176;49.502;11.754;2023-08-07T06:10:21;2.00;;;1.27;;
21183;SDS011;18176;49.502;11.754;2023-08-07T06:14:24;2.00;;;1.30;;
21183;SDS011;18176;49.502;11.754;2023-08-07T06:18:25;4.13;;;1.70;;
21183;SDS011;18176;49.502;11.754;2023-08-07T06:22:26;3.17;;;1.60;;
21183;SDS011;18176;49.502;11.754;2023-08-07T06:26:26;3.90;;;1.60;;
21183;SDS011;18176;49.502;11.754;2023-08-07T06:30:29;4.20;;;1.80;;
21183;SDS011;18176;49.502;11.754;2023-08-07T06:34:32;5.60;;;1.93;;
21183;SDS011;18176;49.502;11.754;2023-08-07T06:38:34;3.43;;;1.70;;
21183;SDS011;18176;49.502;11.754;2023-08-07T06:42:35;4.23;;;1.83;;
21183;SDS011;18176;49.502;11.754;2023-08-07T06:46:39;3.53;;;1.77;;
21183;SDS011;18176;49.502;11.754;2023-08-07T06:50:39;2.77;;;1.70;;
21183;SDS011;18176;49.502;11.754;2023-08-07T06:54:39;1.60;;;1.43;;
21183;SDS011;18176;49.502;11.754;2023-08-07T06:58:40;1.60;;;1.50;;
21183;SDS011;18176;49.502;11.754;2023-08-07T07:02:43;1.93;;;1.30;;
21183;SDS011;18176;49.502;11.754;2023-08-07T07:06:44;3.13;;;1.47;;
21183;SDS011;18176;49.502;11.754;2023-08-07T07:10:44;2.17;;;1.20;;
21183;SDS011;18176;49.502;11.754;2023-08-07T07:14:44;4.13;;;1.33;;
21183;SDS011;18176;49.502;11.754;2023-08-07T07:18:47;2.23;;;1.60;;
21183;SDS011;18176;49.502;11.754;2023-08-07T07:22:49;1.43;;;1.30;;
21183;SDS011;18176;49.502;11.754;2023-08-07T07:26:50;3.10;;;1.43;;
21183;SDS011;18176;49.502;11.754;2023-08-07T07:30:51;2.00;;;1.33;;
21183;SDS011;18176;49.502;11.754;2023-08-07T07:34:54;1.90;;;1.17;;
21183;SDS011;18176;49.502;11.754;2023-08-07T07:38:54;1.10;;;1.00;;
21183;SDS011;18176;49.502;11.754;2023-08-07T07:42:55;2.10;;;1.20;;
21183;SDS011;18176;49.502;11.754;2023-08-07T07:46:56;3.00;;;1.30;;
21183;SDS011;18176;49.502;11.754;2023-08-07T07:51:00;1.73;;;1.10;;
21183;SDS011;18176;49.502;11.754;2023-08-07T07:55:01;2.47;;;1.43;;
21183;SDS011;18176;49.502;11.754;2023-08-07T07:59:03;3.27;;;1.43;;
21183;SDS011;18176;49.502;11.754;2023-08-07T08:03:05;2.20;;;1.30;;
21183;SDS011;18176;49.502;11.754;2023-08-07T08:07:08;2.67;;;1.20;;
21183;SDS011;18176;49.502;11.754;2023-08-07T08:11:09;1.93;;;1.30;;
21183;SDS011;18176;49.502;11.754;2023-08-07T08:15:09;1.40;;;1.10;;
21183;SDS011;18176;49.502;11.754;2023-08-07T08:19:10;1.40;;;1.13;;
21183;SDS011;18176;49.502;11.754;2023-08-07T08:23:14;4.43;;;1.50;;
21183;SDS011;18176;49.502;11.754;2023-08-07T08:27:14;1.87;;;1.30;;
21183;SDS011;18176;49.502;11.754;2023-08-07T08:31:15;1.20;;;1.10;;
21183;SDS011;18176;49.502;11.754;2023-08-07T08:35:18;2.20;;;1.10;;
21183;SDS011;18176;49.502;11.754;2023-08-07T08:39:21;1.83;;;1.10;;
21183;SDS011;18176;49.502;11.754;2023-08-07T08:43:22;2.73;;;1.20;;
21183;SDS011;18176;49.502;11.754;2023-08-07T08:47:26;2.40;;;1.10;;
21183;SDS011;18176;49.502;11.754;2023-08-07T08:51:26;2.03;;;1.30;;
21183;SDS011;18176;49.502;11.754;2023-08-07T08:55:30;2.23;;;1.10;;
21183;SDS011;18176;49.502;11.754;2023-08-07T08:59:31;4.10;;;1.30;;
21183;SDS011;18176;49.502;11.754;2023-08-07T09:03:32;1.93;;;1.30;;
21183;SDS011;18176;49.502;11.754;2023-08-07T09:07:34;2.47;;;1.33;;
21183;SDS011;18176;49.502;11.754;2023-08-07T09:11:38;1.67;;;1.40;;
21183;SDS011;18176;49.502;11.754;2023-08-07T09:15:40;2.43;;;1.53;;
21183;SDS011;18176;49.502;11.754;2023-08-07T09:19:47;2.80;;;1.50;;
21183;SDS011;18176;49.502;11.754;2023-08-07T09:23:47;3.80;;;1.50;;
21183;SDS011;18176;49.502;11.754;2023-08-07T09:27:50;2.00;;;1.50;;
21183;SDS011;18176;49.502;11.754;2023-08-07T09:31:51;3.80;;;1.63;;
21183;SDS011;18176;49.502;11.754;2023-08-07T09:35:56;3.63;;;1.50;;
21183;SDS011;18176;49.502;11.754;2023-08-07T09:39:59;3.10;;;1.60;;
21183;SDS011;18176;49.502;11.754;2023-08-07T09:44:07;4.50;;;1.80;;
21183;SDS011;18176;49.502;11.754;2023-08-07T09:48:09;5.40;;;2.17;;
21183;SDS011;18176;49.502;11.754;2023-08-07T09:52:10;4.93;;;1.67;;
21183;SDS011;18176;49.502;11.754;2023-08-07T09:56:13;2.03;;;1.80;;
21183;SDS011;18176;49.502;11.754;2023-08-07T10:00:17;7.10;;;4.40;;
21183;SDS011;18176;49.502;11.754;2023-08-07T10:04:19;5.17;;;1.70;;
21183;SDS011;18176;49.502;11.754;2023-08-07T10:08:21;2.17;;;1.50;;
21183;SDS011;18176;49.502;11.754;2023-08-07T10:12:22;3.53;;;1.70;;
21183;SDS011;18176;49.502;11.754;2023-08-07T10:16:26;1.73;;;1.50;;
21183;SDS011;18176;49.502;11.754;2023-08-07T10:20:27;3.17;;;1.90;;
21183;SDS011;18176;49.502;11.754;2023-08-07T10:24:29;2.53;;;1.60;;
21183;SDS011;18176;49.502;11.754;2023-08-07T10:28:31;2.00;;;1.30;;
21183;SDS011;18176;49.502;11.754;2023-08-07T10:32:39;1.80;;;1.07;;
21183;SDS011;18176;49.502;11.754;2023-08-07T10:36:42;1.67;;;1.00;;
21183;SDS011;18176;49.502;11.754;2023-08-07T10:41:00;1.27;;;0.97;;
21183;SDS011;18176;49.502;11.754;2023-08-07T10:45:05;1.83;;;1.17;;
21183;SDS011;18176;49.502;11.754;2023-08-07T10:49:09;1.20;;;1.10;;
21183;SDS011;18176;49.502;11.754;2023-08-07T10:53:09;3.80;;;1.43;;
21183;SDS011;18176;49.502;11.754;2023-08-07T10:57:18;1.57;;;1.47;;
21183;SDS011;18176;49.502;11.754;2023-08-07T11:01:20;2.23;;;1.80;;
21183;SDS011;18176;49.502;11.754;2023-08-07T11:05:37;3.33;;;1.90;;
21183;SDS011;18176;49.502;11.754;2023-08-07T11:09:39;3.33;;;2.10;;
21183;SDS011;18176;49.502;11.754;2023-08-07T11:13:39;3.30;;;2.20;;
21183;SDS011;18176;49.502;11.754;2023-08-07T11:17:40;4.43;;;2.60;;
21183;SDS011;18176;49.502;11.754;2023-08-07T11:21:48;5.03;;;2.40;;
21183;SDS011;18176;49.502;11.754;2023-08-07T11:25:51;6.00;;;2.93;;
21183;SDS011;18176;49.502;11.754;2023-08-07T11:29:52;4.40;;;2.50;;
21183;SDS011;18176;49.502;11.754;2023-08-07T11:33:52;4.30;;;2.60;;
21183;SDS011;18176;49.502;11.754;2023-08-07T11:37:57;4.97;;;2.47;;
21183;SDS011;18176;49.502;11.754;2023-08-07T11:41:58;4.03;;;2.50;;
21183;SDS011;18176;49.502;11.754;2023-08-07T11:46:00;4.13;;;2.40;;
21183;SDS011;18176;49.502;11.754;2023-08-07T11:50:02;3.83;;;2.57;;
21183;SDS011;18176;49.502;11.754;2023-08-07T11:54:13;4.47;;;2.47;;
21183;SDS011;18176;49.502;11.754;2023-08-07T11:58:15;4.10;;;2.43;;
21183;SDS011;18176;49.502;11.754;2023-08-07T12:02:16;4.80;;;2.33;;
21183;SDS011;18176;49.502;11.754;2023-08-07T12:06:22;4.47;;;2.87;;
21183;SDS011;18176;49.502;11.754;2023-08-07T12:10:26;4.20;;;2.70;;
21183;SDS011;18176;49.502;11.754;2023-08-07T12:14:28;5.70;;;2.50;;
21183;SDS011;18176;49.502;11.754;2023-08-07T12:18:29;5.50;;;2.87;;
21183;SDS011;18176;49.502;11.754;2023-08-07T12:22:32;3.27;;;2.40;;
21183;SDS011;18176;49.502;11.754;2023-08-07T12:26:35;3.80;;;2.40;;
21183;SDS011;18176;49.502;11.754;2023-08-07T12:30:36;6.27;;;2.40;;
21183;SDS011;18176;49.502;11.754;2023-08-07T12:34:37;6.47;;;2.60;;
21183;SDS011;18176;49.502;11.754;2023-08-07T12:38:40;5.67;;;2.77;;
21183;SDS011;18176;49.502;11.754;2023-08-07T12:42:43;4.47;;;2.13;;
21183;SDS011;18176;49.502;11.754;2023-08-07T12:46:45;5.23;;;2.40;;
21183;SDS011;18176;49.502;11.754;2023-08-07T12:50:45;5.40;;;2.10;;
21183;SDS011;18176;49.502;11.754;2023-08-07T12:54:45;4.07;;;2.30;;
21183;SDS011;18176;49.502;11.754;2023-08-07T12:58:48;5.00;;;2.37;;
21183;SDS011;18176;49.502;11.754;2023-08-07T13:02:50;4.97;;;2.10;;
21183;SDS011;18176;49.502;11.754;2023-08-07T13:06:52;4.63;;;2.07;;
21183;SDS011;18176;49.502;11.754;2023-08-07T13:10:52;4.13;;;2.10;;
21183;SDS011;18176;49.502;11.754;2023-08-07T13:14:56;3.63;;;1.80;;
21183;SDS011;18176;49.502;11.754;2023-08-07T13:18:56;4.87;;;1.90;;
21183;SDS011;18176;49.502;11.754;2023-08-07T13:23:01;2.90;;;1.70;;
21183;SDS011;18176;49.502;11.754;2023-08-07T13:27:03;3.97;;;1.75;;
21183;SDS011;18176;49.502;11.754;2023-08-07T13:31:07;2.05;;;1.35;;
21183;SDS011;18176;49.502;11.754;2023-08-07T13:35:08;2.58;;;1.30;;
21183;SDS011;18176;49.502;11.754;2023-08-07T13:39:08;1.98;;;1.40;;
21183;SDS011;18176;49.502;11.754;2023-08-07T13:43:10;1.95;;;1.30;;
21183;SDS011;18176;49.502;11.754;2023-08-07T13:47:13;2.15;;;1.27;;
21183;SDS011;18176;49.502;11.754;2023-08-07T13:51:14;1.33;;;1.20;;
21183;SDS011;18176;49.502;11.754;2023-08-07T13:55:14;2.00;;;1.50;;
21183;SDS011;18176;49.502;11.754;2023-08-07T13:59:15;2.03;;;1.70;;
21183;SDS011;18176;49.502;11.754;2023-08-07T14:03:18;2.07;;;1.50;;
21183;SDS011;18176;49.502;11.754;2023-08-07T14:07:19;2.47;;;1.70;;
21183;SDS011;18176;49.502;11.754;2023-08-07T14:11:20;3.40;;;2.00;;
21183;SDS011;18176;49.502;11.754;2023-08-07T14:15:24;1.93;;;1.53;;
21183;SDS011;18176;49.502;11.754;2023-08-07T14:19:27;2.67;;;1.93;;
21183;SDS011;18176;49.502;11.754;2023-08-07T14:23:28;3.20;;;2.50;;
21183;SDS011;18176;49.502;11.754;2023-08-07T14:27:29;2.10;;;1.90;;
21183;SDS011;18176;49.502;11.754;2023-08-07T14:31:30;2.53;;;1.90;;
21183;SDS011;18176;49.502;11.754;2023-08-07T14:35:33;1.87;;;1.60;;
21183;SDS011;18176;49.502;11.754;2023-08-07T14:39:34;2.70;;;1.90;;
21183;SDS011;18176;49.502;11.754;2023-08-07T14:43:34;2.40;;;2.13;;
21183;SDS011;18176;49.502;11.754;2023-08-07T14:47:34;3.90;;;2.10;;
21183;SDS011;18176;49.502;11.754;2023-08-07T14:51:38;4.63;;;2.03;;
21183;SDS011;18176;49.502;11.754;2023-08-07T14:55:38;2.07;;;1.80;;
21183;SDS011;18176;49.502;11.754;2023-08-07T14:59:39;2.07;;;1.63;;
21183;SDS011;18176;49.502;11.754;2023-08-07T15:03:40;3.60;;;2.00;;
21183;SDS011;18176;49.502;11.754;2023-08-07T15:07:43;3.60;;;1.87;;
21183;SDS011;18176;49.502;11.754;2023-08-07T15:11:43;3.60;;;1.80;;
21183;SDS011;18176;49.502;11.754;2023-08-07T15:15:44;3.23;;;2.20;;
21183;SDS011;18176;49.502;11.754;2023-08-07T15:19:44;5.57;;;2.20;;
21183;SDS011;18176;49.502;11.754;2023-08-07T15:23:47;3.27;;;2.20;;
21183;SDS011;18176;49.502;11.754;2023-08-07T15:27:48;3.90;;;2.20;;
21183;SDS011;18176;49.502;11.754;2023-08-07T15:31:48;5.43;;;2.17;;
21183;SDS011;18176;49.502;11.754;2023-08-07T15:35:49;4.30;;;2.53;;
21183;SDS011;18176;49.502;11.754;2023-08-07T15:39:55;3.30;;;2.20;;
21183;SDS011;18176;49.502;11.754;2023-08-07T15:43:55;4.30;;;2.20;;
21183;SDS011;18176;49.502;11.754;2023-08-07T15:47:56;5.67;;;2.73;;
21183;SDS011;18176;49.502;11.754;2023-08-07T15:51:56;5.80;;;2.60;;
21183;SDS011;18176;49.502;11.754;2023-08-07T15:55:59;5.60;;;2.80;;
21183;SDS011;18176;49.502;11.754;2023-08-07T16:00:00;5.70;;;2.70;;
21183;SDS011;18176;49.502;11.754;2023-08-07T16:04:08;5.27;;;2.60;;
21183;SDS011;18176;49.502;11.754;2023-08-07T16:08:09;5.00;;;2.70;;
21183;SDS011;18176;49.502;11.754;2023-08-07T16:12:14;6.53;;;2.60;;
21183;SDS011;18176;49.502;11.754;2023-08-07T16:16:16;6.30;;;2.80;;
21183;SDS011;18176;49.502;11.754;2023-08-07T16:20:16;6.13;;;2.30;;
21183;SDS011;18176;49.502;11.754;2023-08-07T16:24:17;7.10;;;2.80;;
21183;SDS011;18176;49.502;11.754;2023-08-07T16:28:21;3.70;;;2.43;;
21183;SDS011;18176;49.502;11.754;2023-08-07T16:32:21;4.50;;;2.50;;
21183;SDS011;18176;49.502;11.754;2023-08-07T16:36:22;4.27;;;2.30;;
21183;SDS011;18176;49.502;11.754;2023-08-07T16:40:23;5.03;;;2.57;;
21183;SDS011;18176;49.502;11.754;2023-08-07T16:44:26;3.60;;;2.20;;
21183;SDS011;18176;49.502;11.754;2023-08-07T16:48:27;6.05;;;3.22;;
21183;SDS011;18176;49.502;11.754;2023-08-07T16:52:27;5.75;;;3.00;;
21183;SDS011;18176;49.502;11.754;2023-08-07T16:56:28;5.30;;;2.42;;
21183;SDS011;18176;49.502;11.754;2023-08-07T17:00:31;7.28;;;2.50;;
21183;SDS011;18176;49.502;11.754;2023-08-07T17:04:32;7.15;;;2.78;;
21183;SDS011;18176;49.502;11.754;2023-08-07T17:08:34;4.10;;;2.20;;
21183;SDS011;18176;49.502;11.754;2023-08-07T17:12:35;4.18;;;2.40;;
21183;SDS011;18176;49.502;11.754;2023-08-07T17:16:38;7.45;;;2.55;;
21183;SDS011;18176;49.502;11.754;2023-08-07T17:20:38;3.85;;;2.17;;
21183;SDS011;18176;49.502;11.754;2023-08-07T17:24:38;3.63;;;2.20;;
21183;SDS011;18176;49.502;11.754;2023-08-07T17:28:39;5.88;;;2.17;;
21183;SDS011;18176;49.502;11.754;2023-08-07T17:32:42;4.43;;;1.98;;
21183;SDS011;18176;49.502;11.754;2023-08-07T17:36:43;6.05;;;2.33;;
21183;SDS011;18176;49.502;11.754;2023-08-07T17:40:43;7.38;;;2.20;;
21183;SDS011;18176;49.502;11.754;2023-08-07T17:44:44;3.35;;;2.10;;
21183;SDS011;18176;49.502;11.754;2023-08-07T17:48:49;4.03;;;2.38;;
21183;SDS011;18176;49.502;11.754;2023-08-07T17:52:50;7.25;;;2.70;;
21183;SDS011;18176;49.502;11.754;2023-08-07T17:56:51;3.70;;;2.17;;
21183;SDS011;18176;49.502;11.754;2023-08-07T18:00:53;4.63;;;2.33;;
21183;SDS011;18176;49.502;11.754;2023-08-07T18:04:56;6.03;;;2.40;;
21183;SDS011;18176;49.502;11.754;2023-08-07T18:08:58;4.15;;;2.60;;
21183;SDS011;18176;49.502;11.754;2023-08-07T18:12:58;4.90;;;2.77;;
21183;SDS011;18176;49.502;11.754;2023-08-07T18:16:59;7.77;;;3.60;;
21183;SDS011;18176;49.502;11.754;2023-08-07T18:21:02;6.20;;;2.60;;
21183;SDS011;18176;49.502;11.754;2023-08-07T18:25:03;4.53;;;2.60;;
21183;SDS011;18176;49.502;11.754;2023-08-07T18:29:04;4.43;;;2.63;;
21183;SDS011;18176;49.502;11.754;2023-08-07T18:33:05;4.10;;;2.33;;
21183;SDS011;18176;49.502;11.754;2023-08-07T18:37:08;8.63;;;2.37;;
21183;SDS011;18176;49.502;11.754;2023-08-07T18:41:09;3.93;;;2.63;;
21183;SDS011;18176;49.502;11.754;2023-08-07T18:45:10;5.03;;;2.57;;
21183;SDS011;18176;49.502;11.754;2023-08-07T18:49:12;4.60;;;2.70;;
21183;SDS011;18176;49.502;11.754;2023-08-07T18:53:15;6.20;;;2.70;;
21183;SDS011;18176;49.502;11.754;2023-08-07T18:57:16;3.07;;;2.50;;
21183;SDS011;18176;49.502;11.754;2023-08-07T19:01:16;5.03;;;3.20;;
21183;SDS011;18176;49.502;11.754;2023-08-07T19:05:17;4.23;;;2.83;;
21183;SDS011;18176;49.502;11.754;2023-08-07T19:09:20;5.17;;;2.90;;
21183;SDS011;18176;49.502;11.754;2023-08-07T19:13:21;6.17;;;2.57;;
21183;SDS011;18176;49.502;11.754;2023-08-07T19:17:22;5.30;;;3.10;;
21183;SDS011;18176;49.502;11.754;2023-08-07T19:21:25;6.67;;;3.07;;
21183;SDS011;18176;49.502;11.754;2023-08-07T19:25:28;6.00;;;2.50;;
21183;SDS011;18176;49.502;11.754;2023-08-07T19:29:29;4.87;;;2.83;;
21183;SDS011;18176;49.502;11.754;2023-08-07T19:33:29;4.03;;;2.70;;
21183;SDS011;18176;49.502;11.754;2023-08-07T19:37:31;7.60;;;3.33;;
21183;SDS011;18176;49.502;11.754;2023-08-07T19:41:34;5.97;;;2.97;;
21183;SDS011;18176;49.502;11.754;2023-08-07T19:45:35;8.53;;;3.20;;
21183;SDS011;18176;49.502;11.754;2023-08-07T19:49:36;4.47;;;2.90;;
21183;SDS011;18176;49.502;11.754;2023-08-07T19:53:36;4.33;;;2.93;;
21183;SDS011;18176;49.502;11.754;2023-08-07T19:57:54;4.37;;;2.87;;
21183;SDS011;18176;49.502;11.754;2023-08-07T20:01:54;6.10;;;2.80;;
21183;SDS011;18176;49.502;11.754;2023-08-07T20:05:55;3.83;;;2.80;;
21183;SDS011;18176;49.502;11.754;2023-08-07T20:09:56;5.37;;;2.80;;
21183;SDS011;18176;49.502;11.754;2023-08-07T20:13:59;5.73;;;2.90;;
21183;SDS011;18176;49.502;11.754;2023-08-07T20:18:00;4.37;;;2.70;;
21183;SDS011;18176;49.502;11.754;2023-08-07T20:22:00;4.53;;;3.00;;
21183;SDS011;18176;49.502;11.754;2023-08-07T20:26:01;5.13;;;3.10;;
21183;SDS011;18176;49.502;11.754;2023-08-07T20:30:04;7.50;;;2.83;;
21183;SDS011;18176;49.502;11.754;2023-08-07T20:34:06;5.20;;;3.20;;
21183;SDS011;18176;49.502;11.754;2023-08-07T20:38:07;4.93;;;2.80;;
21183;SDS011;18176;49.502;11.754;2023-08-07T20:42:08;6.73;;;2.93;;
21183;SDS011;18176;49.502;11.754;2023-08-07T20:46:11;7.97;;;3.30;;
21183;SDS011;18176;49.502;11.754;2023-08-07T20:50:14;4.50;;;3.10;;
21183;SDS011;18176;49.502;11.754;2023-08-07T20:54:15;7.23;;;3.70;;
21183;SDS011;18176;49.502;11.754;2023-08-07T20:58:15;6.77;;;3.17;;
21183;SDS011;18176;49.502;11.754;2023-08-07T21:02:18;5.97;;;3.70;;
21183;SDS011;18176;49.502;11.754;2023-08-07T21:06:19;4.67;;;3.13;;
21183;SDS011;18176;49.502;11.754;2023-08-07T21:10:19;3.70;;;3.07;;
21183;SDS011;18176;49.502;11.754;2023-08-07T21:14:20;4.47;;;3.00;;
21183;SDS011;18176;49.502;11.754;2023-08-07T21:18:23;8.00;;;3.00;;
21183;SDS011;18176;49.502;11.754;2023-08-07T21:22:24;6.07;;;3.20;;
21183;SDS011;18176;49.502;11.754;2023-08-07T21:26:24;4.67;;;2.63;;
21183;SDS011;18176;49.502;11.754;2023-08-07T21:30:24;4.60;;;2.60;;
21183;SDS011;18176;49.502;11.754;2023-08-07T21:34:28;6.23;;;2.50;;
21183;SDS011;18176;49.502;11.754;2023-08-07T21:38:28;5.23;;;2.60;;
21183;SDS011;18176;49.502;11.754;2023-08-07T21:42:29;3.30;;;2.50;;
21183;SDS011;18176;49.502;11.754;2023-08-07T21:46:29;5.43;;;2.70;;
21183;SDS011;18176;49.502;11.754;2023-08-07T21:50:33;3.47;;;2.50;;
21183;SDS011;18176;49.502;11.754;2023-08-07T21:54:33;7.43;;;2.83;;
21183;SDS011;18176;49.502;11.754;2023-08-07T21:58:34;5.90;;;2.97;;
21183;SDS011;18176;49.502;11.754;2023-08-07T22:02:34;4.17;;;3.17;;
21183;SDS011;18176;49.502;11.754;2023-08-07T22:06:38;4.20;;;2.53;;
21183;SDS011;18176;49.502;11.754;2023-08-07T22:10:39;5.83;;;3.70;;
21183;SDS011;18176;49.502;11.754;2023-08-07T22:14:40;3.27;;;2.70;;
21183;SDS011;18176;49.502;11.754;2023-08-07T22:18:40;3.47;;;2.60;;
21183;SDS011;18176;49.502;11.754;2023-08-07T22:22:43;3.67;;;2.63;;
21183;SDS011;18176;49.502;11.754;2023-08-07T22:26:44;4.73;;;2.37;;
21183;SDS011;18176;49.502;11.754;2023-08-07T22:30:44;6.77;;;3.17;;
21183;SDS011;18176;49.502;11.754;2023-08-07T22:34:44;4.57;;;2.73;;
21183;SDS011;18176;49.502;11.754;2023-08-07T22:38:47;6.27;;;2.50;;
21183;SDS011;18176;49.502;11.754;2023-08-07T22:42:47;3.40;;;2.60;;
21183;SDS011;18176;49.502;11.754;2023-08-07T22:46:47;7.50;;;3.47;;
21183;SDS011;18176;49.502;11.754;2023-08-07T22:50:48;5.90;;;2.90;;
21183;SDS011;18176;49.502;11.754;2023-08-07T22:54:51;4.57;;;2.80;;
21183;SDS011;18176;49.502;11.754;2023-08-07T22:58:52;7.67;;;3.57;;
21183;SDS011;18176;49.502;11.754;2023-08-07T23:02:53;6.67;;;2.93;;
21183;SDS011;18176;49.502;11.754;2023-08-07T23:06:54;5.40;;;2.90;;
21183;SDS011;18176;49.502;11.754;2023-08-07T23:10:57;5.30;;;3.10;;
21183;SDS011;18176;49.502;11.754;2023-08-07T23:14:58;6.67;;;3.17;;
21183;SDS011;18176;49.502;11.754;2023-08-07T23:18:58;3.43;;;2.63;;
21183;SDS011;18176;49.502;11.754;2023-08-07T23:22:58;6.83;;;3.23;;
21183;SDS011;18176;49.502;11.754;2023-08-07T23:27:01;3.10;;;2.80;;
21183;SDS011;18176;49.502;11.754;2023-08-07T23:31:03;3.70;;;2.63;;
21183;SDS011;18176;49.502;11.754;2023-08-07T23:35:04;3.10;;;2.80;;
21183;SDS011;18176;49.502;11.754;2023-08-07T23:39:05;4.63;;;2.97;;
21183;SDS011;18176;49.502;11.754;2023-08-07T23:43:08;5.60;;;3.53;;
21183;SDS011;18176;49.502;11.754;2023-08-07T23:47:09;5.83;;;3.60;;
21183;SDS011;18176;49.502;11.754;2023-08-07T23:51:09;3.77;;;3.00;;
21183;SDS011;18176;49.502;11.754;2023-08-07T23:55:10;4.60;;;3.37;;